Time;durP1;ratioP1;P1;durP2;ratioP2;P2;SDS_P1;SDS_P2;PMS_P1;PMS_P2;Temp;Humidity;BMP_temperature;BMP_pressure;BME280_temperature;BME280_humidity;BME280_pressure;Samples;Min_cycle;Max_cycle;Signal;HPM_P1;HPM_P2
2023/05/26 00:01:23;;;;;;;24.20;21.90;;;23.10;51.80;;;;;;5022545;28;20037;-64
2023/05/26 00:03:51;;;;;;;23.60;21.42;;;23.10;51.80;;;;;;5018752;28;20108;-64
2023/05/26 00:06:20;;;;;;;22.95;20.75;;;23.10;51.80;;;;;;5019727;28;20033;-64
2023/05/26 00:08:47;;;;;;;23.58;21.38;;;23.10;51.80;;;;;;5019143;28;20112;-64
2023/05/26 00:11:13;;;;;;;24.45;22.05;;;23.10;51.80;;;;;;5020544;28;20084;-64
2023/05/26 00:13:38;;;;;;;22.50;20.30;;;23.10;51.70;;;;;;5019888;28;20112;-64
2023/05/26 00:16:04;;;;;;;22.63;20.42;;;23.10;51.80;;;;;;5018265;28;20025;-64
2023/05/26 00:18:31;;;;;;;22.40;20.30;;;23.00;51.70;;;;;;5019629;28;20076;-64
2023/05/26 00:20:57;;;;;;;22.13;20.02;;;23.10;51.80;;;;;;5018933;28;20107;-64
2023/05/26 00:23:23;;;;;;;22.05;19.95;;;23.00;51.70;;;;;;5017884;28;20108;-64
2023/05/26 00:25:49;;;;;;;24.50;22.20;;;23.10;51.80;;;;;;5018141;28;20462;-64
2023/05/26 00:28:15;;;;;;;23.30;21.20;;;23.00;51.70;;;;;;5018606;28;20041;-63
2023/05/26 00:30:41;;;;;;;23.35;21.15;;;23.00;51.70;;;;;;5020602;28;20425;-64
2023/05/26 00:33:06;;;;;;;23.13;21.02;;;23.00;51.70;;;;;;5017135;28;20116;-63
2023/05/26 00:35:32;;;;;;;22.80;20.45;;;23.00;51.70;;;;;;5020646;28;20025;-64
2023/05/26 00:37:57;;;;;;;21.77;19.77;;;23.00;51.70;;;;;;5023514;28;20022;-64
2023/05/26 00:40:23;;;;;;;22.08;19.98;;;23.00;51.70;;;;;;5018078;28;20037;-64
2023/05/26 00:42:49;;;;;;;22.33;20.23;;;23.00;51.70;;;;;;5019673;28;20447;-64
2023/05/26 00:45:14;;;;;;;22.75;20.65;;;23.00;51.70;;;;;;5018087;28;20029;-64
2023/05/26 00:47:40;;;;;;;20.83;18.92;;;23.00;51.70;;;;;;5016845;28;20030;-64
2023/05/26 00:50:07;;;;;;;21.80;19.70;;;23.00;51.70;;;;;;5020524;28;20547;-64
2023/05/26 00:52:33;;;;;;;22.00;19.90;;;23.00;51.70;;;;;;5018682;28;20080;-64
2023/05/26 00:55:00;;;;;;;21.17;19.27;;;23.00;51.70;;;;;;5018043;28;20026;-64
2023/05/26 00:57:27;;;;;;;21.65;19.55;;;23.00;51.70;;;;;;5021458;28;20029;-64
2023/05/26 00:59:57;;;;;;;21.60;19.50;;;23.00;51.70;;;;;;5019040;28;20087;-64
2023/05/26 01:02:25;;;;;;;20.48;18.58;;;23.00;51.70;;;;;;5018356;28;20069;-64
2023/05/26 01:04:52;;;;;;;21.63;19.63;;;23.00;51.70;;;;;;5018593;28;20030;-64
2023/05/26 01:07:22;;;;;;;20.83;18.83;;;23.00;51.70;;;;;;5020634;28;20080;-64
2023/05/26 01:09:49;;;;;;;20.30;18.45;;;23.00;51.70;;;;;;5019565;28;20075;-64
2023/05/26 01:12:23;;;;;;;21.13;19.15;;;23.00;51.70;;;;;;5033190;28;20544;-65
2023/05/26 01:15:08;;;;;;;20.05;18.23;;;23.00;51.70;;;;;;5018450;28;20034;-64
2023/05/26 01:17:55;;;;;;;20.67;18.67;;;23.00;51.70;;;;;;5019500;28;20497;-64
2023/05/26 01:20:38;;;;;;;20.90;18.90;;;23.00;51.70;;;;;;5015669;28;20481;-64
2023/05/26 01:23:12;;;;;;;20.70;18.70;;;23.00;51.70;;;;;;5016273;28;20049;-64
2023/05/26 01:26:11;;;;;;;20.33;18.42;;;23.00;51.70;;;;;;5020137;28;20029;-64
2023/05/26 01:28:40;;;;;;;19.98;18.08;;;23.00;51.70;;;;;;5021672;28;20034;-64
2023/05/26 01:31:07;;;;;;;19.42;17.63;;;22.90;51.60;;;;;;5023430;28;20042;-64
2023/05/26 01:33:33;;;;;;;21.10;19.20;;;22.90;51.70;;;;;;5033056;28;20488;-64
2023/05/26 01:35:59;;;;;;;21.10;19.13;;;22.90;51.70;;;;;;5022624;28;20034;-64
2023/05/26 01:38:24;;;;;;;20.23;18.33;;;22.90;51.70;;;;;;5024642;28;20363;-64
2023/05/26 01:40:59;;;;;;;18.88;17.08;;;22.90;51.70;;;;;;5023195;28;20028;-64
2023/05/26 01:43:50;;;;;;;18.75;16.95;;;22.90;51.70;;;;;;5022847;28;20028;-65
2023/05/26 01:46:44;;;;;;;19.42;17.63;;;22.90;51.70;;;;;;5021512;28;20125;-64
2023/05/26 01:49:13;;;;;;;19.38;17.58;;;22.90;51.70;;;;;;5023878;28;20045;-65
2023/05/26 01:51:42;;;;;;;19.25;17.45;;;22.90;51.70;;;;;;5021442;28;20308;-64
2023/05/26 01:54:11;;;;;;;19.15;17.35;;;22.90;51.70;;;;;;5020271;28;20339;-64
2023/05/26 01:56:37;;;;;;;17.90;16.30;;;22.90;51.70;;;;;;5021001;28;20036;-64
2023/05/26 01:59:04;;;;;;;18.48;16.77;;;22.90;51.70;;;;;;5020394;28;20026;-64
2023/05/26 02:01:29;;;;;;;18.83;17.02;;;22.90;51.60;;;;;;5021771;28;20505;-64
2023/05/26 02:03:55;;;;;;;18.70;16.85;;;22.90;51.70;;;;;;5020024;28;20113;-64
2023/05/26 02:06:21;;;;;;;19.08;17.27;;;22.90;52.20;;;;;;5028022;28;20030;-65
2023/05/26 02:08:47;;;;;;;17.73;16.13;;;22.90;51.60;;;;;;5020912;28;20089;-64
2023/05/26 02:11:13;;;;;;;17.35;15.75;;;22.90;51.60;;;;;;5022819;28;20038;-64
2023/05/26 02:13:39;;;;;;;17.52;15.88;;;22.90;51.60;;;;;;5024098;28;20166;-64
2023/05/26 02:16:04;;;;;;;18.48;16.75;;;22.90;51.60;;;;;;5020231;28;20041;-64
2023/05/26 02:18:30;;;;;;;17.33;15.73;;;22.90;51.60;;;;;;5022968;28;20032;-64
2023/05/26 02:20:56;;;;;;;17.50;15.90;;;22.90;51.60;;;;;;5022332;28;20102;-64
2023/05/26 02:23:22;;;;;;;18.02;16.33;;;22.90;51.70;;;;;;5021012;28;20157;-64
2023/05/26 02:25:47;;;;;;;17.85;16.25;;;22.90;51.70;;;;;;5018788;28;20029;-65
2023/05/26 02:28:13;;;;;;;17.95;16.27;;;22.90;51.60;;;;;;5019932;28;20034;-64
2023/05/26 02:30:38;;;;;;;17.52;15.82;;;22.90;51.60;;;;;;5022611;28;20078;-64
2023/05/26 02:33:05;;;;;;;17.55;15.95;;;22.90;51.60;;;;;;5021694;28;20343;-64
2023/05/26 02:35:31;;;;;;;17.60;16.00;;;22.90;51.60;;;;;;5020179;28;20037;-64
2023/05/26 02:37:57;;;;;;;16.63;15.13;;;22.90;51.60;;;;;;5022485;28;20497;-64
2023/05/26 02:40:22;;;;;;;15.82;14.32;;;22.90;51.70;;;;;;5023323;28;20470;-64
2023/05/26 02:42:48;;;;;;;16.23;14.75;;;22.90;51.60;;;;;;5021781;28;20472;-64
2023/05/26 02:45:13;;;;;;;16.13;14.63;;;22.90;51.60;;;;;;5020667;28;20026;-64
2023/05/26 02:47:39;;;;;;;16.20;14.73;;;22.90;51.60;;;;;;5021693;28;20034;-64
2023/05/26 02:50:06;;;;;;;15.98;14.48;;;22.90;51.60;;;;;;5022331;28;20466;-64
2023/05/26 02:52:31;;;;;;;16.38;14.77;;;22.90;51.60;;;;;;5023548;28;20496;-64
2023/05/26 02:54:57;;;;;;;16.15;14.65;;;22.90;51.70;;;;;;5027117;28;20026;-64
2023/05/26 02:57:22;;;;;;;16.33;14.82;;;22.80;51.60;;;;;;5028548;28;20485;-65
2023/05/26 02:59:48;;;;;;;15.98;14.57;;;22.80;52.10;;;;;;5020432;28;20036;-64
2023/05/26 03:02:14;;;;;;;15.48;14.13;;;22.80;51.60;;;;;;5018603;28;20025;-65
2023/05/26 03:04:39;;;;;;;15.70;14.30;;;22.80;51.60;;;;;;5020444;28;20494;-64
2023/05/26 03:07:07;;;;;;;15.48;14.07;;;22.80;51.60;;;;;;5019559;28;20041;-65
2023/05/26 03:09:34;;;;;;;15.88;14.38;;;22.80;51.60;;;;;;5021173;28;20087;-64
2023/05/26 03:11:59;;;;;;;16.02;14.52;;;22.80;51.60;;;;;;5023210;28;20064;-64
2023/05/26 03:14:25;;;;;;;15.82;14.38;;;22.80;51.60;;;;;;5021573;28;20061;-64
2023/05/26 03:16:51;;;;;;;14.43;13.13;;;22.80;51.60;;;;;;5019753;28;20029;-64
2023/05/26 03:19:17;;;;;;;15.63;14.20;;;22.80;51.60;;;;;;5021608;28;20572;-64
2023/05/26 03:21:43;;;;;;;14.90;13.50;;;22.80;51.60;;;;;;5020231;28;20033;-64
2023/05/26 03:24:08;;;;;;;14.85;13.55;;;22.80;51.60;;;;;;5019099;28;20021;-65
2023/05/26 03:26:34;;;;;;;15.27;13.82;;;22.80;51.60;;;;;;5018921;28;20025;-64
2023/05/26 03:29:00;;;;;;;14.75;13.35;;;22.80;51.60;;;;;;5023216;28;20026;-64
2023/05/26 03:31:26;;;;;;;15.13;13.73;;;22.80;51.60;;;;;;5019996;28;20059;-64
2023/05/26 03:33:52;;;;;;;14.18;12.90;;;22.80;51.60;;;;;;5019146;28;20580;-64
2023/05/26 03:36:18;;;;;;;13.95;12.65;;;22.80;51.60;;;;;;5018365;28;20544;-65
2023/05/26 03:38:43;;;;;;;14.15;12.88;;;22.80;51.60;;;;;;5020235;28;20022;-64
2023/05/26 03:41:09;;;;;;;15.27;13.88;;;22.80;51.60;;;;;;5023090;28;20052;-64
2023/05/26 03:43:35;;;;;;;14.70;13.30;;;22.80;51.60;;;;;;5019793;28;20017;-64
2023/05/26 03:46:00;;;;;;;13.82;12.52;;;22.80;51.60;;;;;;5020838;28;20547;-64
2023/05/26 03:48:26;;;;;;;13.57;12.27;;;22.80;51.60;;;;;;5020828;28;20112;-64
2023/05/26 03:50:52;;;;;;;13.38;12.20;;;22.80;51.60;;;;;;5018362;28;20029;-64
2023/05/26 03:53:18;;;;;;;14.02;12.73;;;22.80;52.10;;;;;;5020980;28;20460;-64
2023/05/26 03:55:43;;;;;;;14.20;12.90;;;22.80;52.10;;;;;;5022102;28;20108;-64
2023/05/26 03:58:09;;;;;;;12.45;11.35;;;22.80;51.60;;;;;;5020054;28;20030;-64
2023/05/26 04:00:35;;;;;;;13.70;12.40;;;22.70;51.60;;;;;;5025717;28;20021;-65
2023/05/26 04:03:01;;;;;;;13.43;12.23;;;22.80;51.60;;;;;;5021011;28;20083;-64
2023/05/26 04:05:26;;;;;;;13.40;12.20;;;22.80;51.60;;;;;;5026487;28;20461;-64
2023/05/26 04:07:52;;;;;;;13.27;12.07;;;22.70;51.60;;;;;;5019903;28;20028;-64
2023/05/26 04:10:18;;;;;;;12.65;11.45;;;22.70;51.60;;;;;;5018459;28;20053;-64
2023/05/26 04:12:43;;;;;;;12.85;11.57;;;22.70;51.60;;;;;;5019070;28;20025;-64
2023/05/26 04:15:09;;;;;;;12.50;11.30;;;22.70;51.60;;;;;;5021032;28;20389;-66
2023/05/26 04:17:36;;;;;;;12.40;11.30;;;22.70;51.60;;;;;;5020585;28;20033;-65
2023/05/26 04:20:11;;;;;;;12.57;11.40;;;22.70;51.60;;;;;;5024985;28;20022;-64
2023/05/26 04:22:40;;;;;;;12.45;11.35;;;22.70;51.60;;;;;;5018213;28;20021;-64
2023/05/26 04:25:09;;;;;;;12.02;10.93;;;22.70;51.60;;;;;;5019919;28;20075;-64
2023/05/26 04:27:35;;;;;;;12.13;11.02;;;22.70;51.60;;;;;;5018442;28;20038;-64
2023/05/26 04:30:04;;;;;;;11.98;10.77;;;22.70;51.60;;;;;;5020321;28;20393;-64
2023/05/26 04:32:33;;;;;;;12.00;10.90;;;22.70;51.50;;;;;;5026118;28;20458;-64
2023/05/26 04:35:00;;;;;;;12.30;11.10;;;22.70;51.50;;;;;;5016936;28;20129;-64
2023/05/26 04:37:26;;;;;;;12.10;11.00;;;22.70;51.50;;;;;;5017993;28;20091;-64
2023/05/26 04:39:52;;;;;;;12.02;10.85;;;22.70;51.50;;;;;;5020106;28;20048;-64
2023/05/26 04:42:19;;;;;;;11.43;10.43;;;22.70;51.50;;;;;;5019309;28;20073;-64
2023/05/26 04:44:45;;;;;;;11.90;10.80;;;22.70;51.50;;;;;;5020297;28;20053;-64
2023/05/26 04:47:11;;;;;;;12.15;11.00;;;22.70;51.40;;;;;;5019277;28;20080;-64
2023/05/26 04:49:37;;;;;;;10.68;9.68;;;22.70;51.40;;;;;;5017264;28;20033;-64
2023/05/26 04:52:03;;;;;;;11.60;10.52;;;22.70;51.40;;;;;;5021514;28;20025;-64
2023/05/26 04:54:29;;;;;;;10.45;9.50;;;22.70;51.40;;;;;;5016141;28;20545;-64
2023/05/26 04:56:55;;;;;;;10.80;9.80;;;22.70;51.40;;;;;;5018559;28;20111;-64
2023/05/26 04:59:23;;;;;;;10.73;9.73;;;22.70;51.40;;;;;;5020153;28;20093;-64
2023/05/26 05:01:50;;;;;;;10.32;9.32;;;22.70;51.40;;;;;;5017579;28;20125;-64
2023/05/26 05:04:16;;;;;;;10.52;9.52;;;22.70;51.40;;;;;;5020340;28;20025;-64
2023/05/26 05:06:42;;;;;;;10.38;9.48;;;22.70;51.40;;;;;;5015542;28;20034;-64
2023/05/26 05:09:08;;;;;;;10.05;9.15;;;22.70;51.40;;;;;;5021217;28;20044;-65
2023/05/26 05:11:34;;;;;;;9.73;8.82;;;22.70;51.40;;;;;;5021876;28;20488;-64
2023/05/26 05:14:00;;;;;;;10.55;9.55;;;22.70;51.40;;;;;;5023376;28;20036;-64
2023/05/26 05:16:25;;;;;;;10.18;9.25;;;22.70;51.40;;;;;;5016991;28;20093;-64
2023/05/26 05:18:51;;;;;;;10.77;9.77;;;22.60;51.40;;;;;;5017471;28;20473;-64
2023/05/26 05:21:17;;;;;;;10.23;9.32;;;22.70;51.40;;;;;;5016530;28;20029;-64
2023/05/26 05:23:42;;;;;;;10.20;9.30;;;22.60;51.30;;;;;;5020184;28;20462;-64
2023/05/26 05:26:08;;;;;;;10.77;9.77;;;22.60;51.40;;;;;;5018198;28;20632;-65
2023/05/26 05:28:34;;;;;;;10.23;9.32;;;22.60;51.40;;;;;;5018610;28;20025;-64
2023/05/26 05:30:59;;;;;;;10.25;9.35;;;22.60;51.40;;;;;;5018476;28;20461;-64
2023/05/26 05:33:26;;;;;;;9.98;9.07;;;22.60;51.40;;;;;;5017838;28;20076;-64
2023/05/26 05:35:51;;;;;;;10.07;9.15;;;22.60;51.90;;;;;;5020207;28;20397;-64
2023/05/26 05:38:17;;;;;;;10.20;9.30;;;22.60;51.40;;;;;;5018867;28;20026;-64
2023/05/26 05:40:43;;;;;;;10.40;9.45;;;22.70;51.40;;;;;;5017097;28;20025;-64
2023/05/26 05:43:08;;;;;;;10.50;9.57;;;22.60;51.30;;;;;;5017581;28;20533;-64
2023/05/26 05:45:34;;;;;;;10.50;9.50;;;22.70;51.40;;;;;;5015331;28;20025;-64
2023/05/26 05:47:59;;;;;;;10.05;9.15;;;22.60;51.40;;;;;;5019560;28;20049;-65
2023/05/26 05:50:25;;;;;;;9.68;8.77;;;22.60;51.40;;;;;;5016977;28;20026;-65
2023/05/26 05:52:52;;;;;;;9.80;8.90;;;22.60;51.40;;;;;;5017658;28;20159;-64
2023/05/26 05:55:18;;;;;;;10.15;9.23;;;22.60;51.40;;;;;;5019074;28;20024;-64
2023/05/26 05:57:44;;;;;;;9.93;9.02;;;22.60;51.30;;;;;;5020577;28;20456;-64
2023/05/26 06:00:11;;;;;;;9.90;8.98;;;22.60;51.30;;;;;;5018885;28;20033;-65
2023/05/26 06:02:36;;;;;;;10.20;9.20;;;22.60;51.40;;;;;;5016061;28;20449;-64
2023/05/26 06:05:02;;;;;;;9.57;8.68;;;22.60;51.40;;;;;;5020259;28;20045;-64
2023/05/26 06:07:28;;;;;;;9.38;8.48;;;22.60;51.40;;;;;;5016106;28;20439;-64
2023/05/26 06:09:55;;;;;;;9.60;8.70;;;22.60;51.40;;;;;;5020115;28;20033;-64
2023/05/26 06:12:20;;;;;;;9.55;8.65;;;22.60;51.40;;;;;;5019521;28;20061;-64
2023/05/26 06:14:46;;;;;;;8.68;7.88;;;22.60;51.40;;;;;;5022384;28;20092;-64
2023/05/26 06:17:11;;;;;;;9.35;8.45;;;22.60;51.40;;;;;;5021889;28;20040;-65
2023/05/26 06:19:37;;;;;;;9.40;8.50;;;22.60;51.40;;;;;;5019233;28;20370;-64
2023/05/26 06:22:03;;;;;;;8.60;7.80;;;22.60;51.30;;;;;;5021099;28;20022;-64
2023/05/26 06:24:28;;;;;;;8.45;7.65;;;22.60;51.40;;;;;;5022475;28;20204;-64
2023/05/26 06:26:54;;;;;;;8.70;7.90;;;22.60;51.40;;;;;;5023660;28;20030;-64
2023/05/26 06:29:19;;;;;;;8.32;7.53;;;22.60;51.40;;;;;;5019985;28;20455;-65
2023/05/26 06:31:46;;;;;;;8.23;7.43;;;22.60;51.40;;;;;;5021871;28;20601;-64
2023/05/26 06:34:11;;;;;;;8.15;7.35;;;22.60;51.40;;;;;;5021186;28;20140;-64
2023/05/26 06:36:37;;;;;;;7.40;6.70;;;22.60;51.40;;;;;;5021308;28;20101;-64
2023/05/26 06:39:02;;;;;;;8.15;7.35;;;22.60;51.40;;;;;;5025528;28;20385;-64
2023/05/26 06:41:28;;;;;;;7.68;6.97;;;22.60;51.40;;;;;;5023434;28;20018;-64
2023/05/26 06:43:54;;;;;;;7.70;7.00;;;22.60;51.40;;;;;;5023430;28;20045;-65
2023/05/26 06:46:20;;;;;;;8.10;7.30;;;22.60;51.40;;;;;;5029427;28;20037;-65
2023/05/26 06:48:46;;;;;;;8.30;7.45;;;22.60;51.40;;;;;;5020719;28;20029;-65
2023/05/26 06:51:11;;;;;;;7.63;6.93;;;22.60;51.40;;;;;;5019714;28;20033;-65
2023/05/26 06:53:38;;;;;;;7.63;6.78;;;22.60;51.40;;;;;;5022341;28;20021;-65
2023/05/26 06:56:05;;;;;;;6.82;6.18;;;22.60;51.40;;;;;;5019905;28;20041;-65
2023/05/26 06:58:31;;;;;;;7.50;6.80;;;22.60;51.50;;;;;;5020605;28;20022;-65
2023/05/26 07:01:04;;;;;;;7.78;7.03;;;22.60;51.50;;;;;;5021329;28;20103;-65
2023/05/26 07:03:30;;;;;;;7.63;6.53;;;22.60;51.50;;;;;;5021051;28;20128;-65
2023/05/26 07:05:56;;;;;;;7.13;6.53;;;22.60;51.50;;;;;;5020157;28;20393;-65
2023/05/26 07:08:22;;;;;;;7.32;6.63;;;22.60;51.50;;;;;;5022478;28;20547;-65
2023/05/26 07:10:48;;;;;;;7.10;6.40;;;22.60;51.50;;;;;;5022108;28;20131;-65
2023/05/26 07:13:14;;;;;;;7.07;6.38;;;22.60;51.50;;;;;;5020959;28;20065;-65
2023/05/26 07:15:41;;;;;;;6.93;6.32;;;22.60;51.50;;;;;;5021530;28;20060;-65
2023/05/26 07:18:07;;;;;;;6.88;6.18;;;22.60;51.50;;;;;;5021582;28;20129;-65
2023/05/26 07:20:32;;;;;;;7.20;6.50;;;22.60;51.50;;;;;;5020144;28;20033;-65
2023/05/26 07:22:58;;;;;;;6.90;6.20;;;22.50;51.50;;;;;;5019386;28;20022;-66
2023/05/26 07:25:24;;;;;;;7.03;5.90;;;22.60;51.60;;;;;;5019041;28;20475;-66
2023/05/26 07:27:49;;;;;;;7.03;5.90;;;22.60;51.60;;;;;;5024996;28;20116;-65
2023/05/26 07:30:15;;;;;;;6.63;6.03;;;22.60;51.60;;;;;;5021615;28;20045;-65
2023/05/26 07:32:41;;;;;;;6.32;5.72;;;22.60;51.60;;;;;;5021203;28;20037;-65
2023/05/26 07:35:07;;;;;;;6.13;5.53;;;22.60;51.60;;;;;;5020948;28;20030;-65
2023/05/26 07:37:32;;;;;;;6.50;5.40;;;22.60;51.60;;;;;;5018995;28;20409;-65
2023/05/26 07:39:58;;;;;;;6.10;5.50;;;22.50;51.50;;;;;;5020072;28;20030;-66
2023/05/26 07:42:23;;;;;;;6.60;5.97;;;22.50;51.50;;;;;;5018283;28;20478;-65
2023/05/26 07:44:49;;;;;;;5.72;5.07;;;22.60;51.60;;;;;;5019195;28;20025;-65
2023/05/26 07:47:15;;;;;;;5.78;5.22;;;22.60;51.60;;;;;;5021796;28;20040;-65
2023/05/26 07:49:40;;;;;;;6.38;5.78;;;22.60;51.60;;;;;;5023167;28;20026;-65
2023/05/26 07:52:06;;;;;;;5.93;5.25;;;22.60;51.60;;;;;;5019529;28;20045;-65
2023/05/26 07:54:32;;;;;;;5.22;4.70;;;22.50;51.50;;;;;;5018608;28;20029;-65
2023/05/26 07:56:57;;;;;;;5.60;5.05;;;22.60;51.60;;;;;;5017549;28;20034;-65
2023/05/26 07:59:23;;;;;;;5.70;5.03;;;22.60;51.60;;;;;;5019806;28;20026;-65
2023/05/26 08:01:49;;;;;;;6.45;5.05;;;22.60;51.60;;;;;;5020722;28;20041;-65
2023/05/26 08:04:14;;;;;;;5.70;5.15;;;22.60;51.60;;;;;;5016659;28;20531;-65
2023/05/26 08:06:40;;;;;;;6.53;5.28;;;22.60;51.60;;;;;;5017653;28;20105;-65
2023/05/26 08:09:06;;;;;;;5.30;4.80;;;22.60;51.60;;;;;;5019936;28;20481;-65
2023/05/26 08:11:32;;;;;;;5.60;4.88;;;22.60;51.60;;;;;;5020255;28;20045;-65
2023/05/26 08:13:58;;;;;;;5.40;4.90;;;22.60;51.60;;;;;;5016931;28;20022;-65
2023/05/26 08:16:24;;;;;;;4.72;4.22;;;22.60;51.60;;;;;;5020453;28;20098;-65
2023/05/26 08:18:50;;;;;;;5.00;4.50;;;22.60;51.60;;;;;;5019807;28;20128;-65
2023/05/26 08:21:16;;;;;;;5.07;4.57;;;22.60;51.60;;;;;;5019764;28;20410;-65
2023/05/26 08:23:42;;;;;;;5.13;4.63;;;22.60;51.60;;;;;;5019133;28;20029;-65
2023/05/26 08:26:08;;;;;;;4.80;4.40;;;22.60;51.60;;;;;;5018144;28;20033;-65
2023/05/26 08:28:34;;;;;;;4.97;4.45;;;22.60;51.60;;;;;;5018558;28;20421;-65
2023/05/26 08:31:00;;;;;;;4.88;4.38;;;22.60;51.50;;;;;;5021718;28;20484;-65
2023/05/26 08:33:26;;;;;;;5.00;4.50;;;22.60;51.50;;;;;;5017289;28;20025;-65
2023/05/26 08:35:51;;;;;;;4.90;4.38;;;22.60;51.60;;;;;;5019390;28;20493;-65
2023/05/26 08:38:17;;;;;;;5.18;4.68;;;22.60;51.60;;;;;;5017464;28;20505;-65
2023/05/26 08:40:43;;;;;;;4.57;4.07;;;22.60;51.50;;;;;;5017726;28;20108;-65
2023/05/26 08:43:12;;;;;;;5.20;4.30;;;22.60;51.50;;;;;;5021355;28;20018;-65
2023/05/26 08:45:38;;;;;;;5.38;4.70;;;22.60;51.50;;;;;;5020012;28;20052;-65
2023/05/26 08:48:08;;;;;;;4.53;4.10;;;22.60;51.40;;;;;;5022555;28;20485;-65
2023/05/26 08:50:34;;;;;;;5.88;4.50;;;22.60;51.40;;;;;;5017967;28;20474;-65
2023/05/26 08:53:01;;;;;;;4.03;3.63;;;22.60;51.30;;;;;;5017697;28;20032;-65
2023/05/26 08:55:27;;;;;;;4.70;3.97;;;22.60;51.30;;;;;;5035172;28;20021;-65
2023/05/26 08:57:54;;;;;;;4.82;4.00;;;22.60;51.30;;;;;;5016735;28;20112;-65
2023/05/26 09:00:20;;;;;;;4.15;3.65;;;22.60;51.30;;;;;;5022447;28;20504;-65
2023/05/26 09:02:45;;;;;;;4.90;4.13;;;22.60;51.20;;;;;;5018104;28;20593;-65
2023/05/26 09:05:11;;;;;;;4.55;3.55;;;22.60;51.20;;;;;;5014288;28;20064;-65
2023/05/26 09:07:37;;;;;;;4.47;3.60;;;22.60;51.20;;;;;;5017562;28;20540;-65
2023/05/26 09:10:23;;;;;;;4.60;3.80;;;22.60;51.10;;;;;;5020124;28;20096;-65
2023/05/26 09:12:49;;;;;;;4.57;3.47;;;22.60;51.00;;;;;;5017004;28;20052;-65
2023/05/26 09:15:21;;;;;;;4.35;3.40;;;22.60;51.00;;;;;;5018889;28;20025;-65
2023/05/26 09:17:48;;;;;;;4.22;3.58;;;22.60;51.00;;;;;;5018473;28;20026;-65
2023/05/26 09:20:13;;;;;;;4.22;3.70;;;22.60;50.90;;;;;;5018840;28;20486;-65
2023/05/26 09:22:39;;;;;;;4.25;3.50;;;22.60;50.90;;;;;;5018104;28;20117;-65
2023/05/26 09:25:05;;;;;;;3.83;3.20;;;22.60;50.90;;;;;;5033880;28;20431;-65
2023/05/26 09:27:31;;;;;;;4.13;3.20;;;22.60;50.80;;;;;;5035118;28;20078;-65
2023/05/26 09:30:00;;;;;;;3.80;3.28;;;22.60;50.80;;;;;;5026580;28;20036;-65
2023/05/26 09:32:27;;;;;;;4.18;3.58;;;22.60;50.70;;;;;;5016167;28;20544;-65
2023/05/26 09:34:54;;;;;;;4.13;3.42;;;22.60;50.70;;;;;;5014790;28;20482;-65
2023/05/26 09:37:29;;;;;;;3.70;3.10;;;22.60;50.70;;;;;;5015801;28;20037;-65
2023/05/26 09:40:05;;;;;;;5.07;3.33;;;22.70;50.70;;;;;;5016384;28;20075;-65
2023/05/26 09:42:31;;;;;;;3.95;2.97;;;22.70;50.70;;;;;;5017677;28;20025;-65
2023/05/26 09:44:56;;;;;;;3.83;3.10;;;22.70;50.70;;;;;;5021735;28;20057;-65
2023/05/26 09:47:22;;;;;;;4.15;3.00;;;22.70;50.70;;;;;;5016584;28;20397;-65
2023/05/26 09:49:47;;;;;;;3.40;2.80;;;22.70;50.60;;;;;;5024354;28;20071;-65
2023/05/26 09:52:13;;;;;;;3.50;2.90;;;22.70;50.60;;;;;;5022659;28;20033;-65
2023/05/26 09:54:40;;;;;;;4.97;2.90;;;22.70;50.60;;;;;;5023184;28;20033;-65
2023/05/26 09:57:10;;;;;;;3.40;2.88;;;22.70;50.60;;;;;;5020925;28;20398;-65
2023/05/26 09:59:41;;;;;;;4.05;3.10;;;22.70;50.60;;;;;;5036552;28;20025;-65
2023/05/26 10:02:20;;;;;;;4.13;2.80;;;22.70;50.60;;;;;;5019082;28;20030;-65
2023/05/26 10:04:49;;;;;;;4.85;3.00;;;22.60;50.50;;;;;;5022205;28;20022;-65
2023/05/26 10:07:18;;;;;;;3.60;2.60;;;22.70;50.60;;;;;;5018844;28;20033;-65
2023/05/26 10:09:47;;;;;;;4.18;2.75;;;22.70;50.60;;;;;;5019681;28;20033;-65
2023/05/26 10:12:16;;;;;;;4.22;2.80;;;22.70;50.60;;;;;;5030239;28;20390;-65
2023/05/26 10:14:41;;;;;;;3.30;2.60;;;22.70;50.60;;;;;;5017957;28;20030;-65
2023/05/26 10:17:07;;;;;;;3.40;2.63;;;22.70;50.60;;;;;;5020132;28;20160;-65
2023/05/26 10:19:33;;;;;;;3.95;2.80;;;22.70;50.60;;;;;;5023340;28;20018;-65
2023/05/26 10:22:06;;;;;;;3.92;2.60;;;22.70;50.50;;;;;;5023043;28;20030;-65
2023/05/26 10:24:39;;;;;;;3.92;2.65;;;22.70;50.60;;;;;;5019857;28;20449;-65
2023/05/26 10:27:09;;;;;;;3.40;2.63;;;22.70;50.60;;;;;;5021242;28;20030;-65
2023/05/26 10:29:46;;;;;;;3.50;2.75;;;22.70;50.60;;;;;;5023281;28;20424;-65
2023/05/26 10:32:40;;;;;;;3.55;2.60;;;22.70;50.60;;;;;;5020898;28;20055;-65
2023/05/26 10:35:22;;;;;;;4.15;2.60;;;22.70;50.60;;;;;;5022144;28;20120;-65
2023/05/26 10:37:55;;;;;;;4.22;2.90;;;22.70;50.60;;;;;;5020099;28;20022;-65
2023/05/26 10:40:39;;;;;;;4.25;2.92;;;22.70;50.60;;;;;;5028303;28;20571;-65
2023/05/26 10:43:12;;;;;;;3.60;2.80;;;22.70;50.60;;;;;;5021503;28;20113;-65
2023/05/26 10:45:55;;;;;;;3.72;2.80;;;22.70;50.60;;;;;;5023306;28;20032;-65
2023/05/26 10:48:24;;;;;;;3.22;2.58;;;22.70;50.60;;;;;;5023450;28;20102;-65
2023/05/26 10:50:59;;;;;;;;;;;22.70;50.60;;;;;;5024569;28;20068;-65
2023/05/26 10:53:36;;;;;;;3.75;2.63;;;22.70;50.60;;;;;;5027421;28;19963;-65
2023/05/26 10:56:04;;;;;;;3.65;2.67;;;22.70;50.70;;;;;;5021844;28;20043;-65
2023/05/26 10:58:31;;;;;;;4.93;2.83;;;22.70;50.70;;;;;;5022148;28;20021;-65
2023/05/26 11:01:01;;;;;;;3.75;2.53;;;22.70;50.70;;;;;;5023058;28;20021;-65
2023/05/26 11:03:42;;;;;;;4.05;3.03;;;22.70;50.70;;;;;;5022907;28;20100;-65
2023/05/26 11:06:10;;;;;;;4.55;2.70;;;22.70;50.80;;;;;;5020111;28;20105;-65
2023/05/26 11:08:38;;;;;;;4.28;2.65;;;22.70;50.80;;;;;;5021596;28;20026;-65
2023/05/26 11:11:08;;;;;;;3.70;2.58;;;22.70;50.80;;;;;;5023267;28;20084;-65
2023/05/26 11:13:50;;;;;;;3.65;2.78;;;22.70;50.80;;;;;;5021957;28;20021;-65
2023/05/26 11:16:17;;;;;;;3.17;2.53;;;22.70;50.80;;;;;;5022241;28;20028;-65
2023/05/26 11:18:48;;;;;;;3.88;2.45;;;22.70;50.80;;;;;;5022693;28;20029;-65
2023/05/26 11:21:14;;;;;;;3.88;2.78;;;22.70;50.80;;;;;;5023166;28;20025;-65
2023/05/26 11:23:41;;;;;;;3.55;2.50;;;22.70;50.80;;;;;;5018096;28;20489;-65
2023/05/26 11:26:14;;;;;;;3.55;2.58;;;22.70;50.80;;;;;;5022124;28;20021;-65
2023/05/26 11:28:44;;;;;;;4.57;2.60;;;22.70;50.90;;;;;;5018598;28;20060;-65
2023/05/26 11:31:22;;;;;;;3.58;2.60;;;22.70;50.80;;;;;;5019734;28;20073;-64
2023/05/26 11:33:48;;;;;;;4.30;2.45;;;22.70;50.90;;;;;;5020883;28;20339;-65
2023/05/26 11:36:18;;;;;;;3.45;2.40;;;22.70;50.90;;;;;;5019911;28;20080;-65
2023/05/26 11:38:47;;;;;;;3.53;2.50;;;22.70;50.80;;;;;;5017807;28;20025;-65
2023/05/26 11:41:17;;;;;;;3.72;2.72;;;22.70;50.80;;;;;;5020028;28;20021;-65
2023/05/26 11:43:46;;;;;;;3.83;2.40;;;22.70;50.80;;;;;;5020181;28;20058;-66
2023/05/26 11:46:15;;;;;;;4.68;2.80;;;22.70;50.90;;;;;;5036178;28;20056;-66
2023/05/26 11:48:42;;;;;;;3.72;2.72;;;22.70;50.80;;;;;;5023478;28;20057;-66
2023/05/26 11:51:09;;;;;;;3.30;2.67;;;22.70;50.80;;;;;;5021410;28;20026;-66
2023/05/26 11:53:36;;;;;;;4.05;2.53;;;22.70;50.80;;;;;;5020088;28;20081;-65
2023/05/26 11:56:09;;;;;;;3.70;2.70;;;22.80;50.90;;;;;;5021269;28;20053;-65
2023/05/26 11:58:37;;;;;;;3.80;2.58;;;22.80;50.90;;;;;;5022068;28;20106;-65
2023/05/26 12:01:04;;;;;;;4.25;2.80;;;22.70;50.80;;;;;;5022546;28;20014;-65
2023/05/26 12:03:38;;;;;;;3.80;2.72;;;22.80;50.80;;;;;;5022711;28;20033;-65
2023/05/26 12:06:17;;;;;;;3.97;2.60;;;22.80;50.80;;;;;;5017700;28;20083;-65
2023/05/26 12:08:43;;;;;;;;;;;22.80;50.80;;;;;;5034522;28;20466;-66
2023/05/26 12:11:16;;;;;;;4.38;2.60;;;22.80;50.80;;;;;;5021906;28;19961;-65
2023/05/26 12:13:41;;;;;;;3.90;2.80;;;22.70;51.30;;;;;;5020404;28;20026;-65
2023/05/26 12:16:24;;;;;;;4.13;2.80;;;22.80;50.80;;;;;;5021631;28;20037;-66
2023/05/26 12:18:58;;;;;;;4.18;2.60;;;22.80;50.80;;;;;;5018579;28;20033;-66
2023/05/26 12:21:25;;;;;;;4.45;3.00;;;22.80;50.70;;;;;;5020871;28;20053;-66
2023/05/26 12:23:53;;;;;;;5.13;2.80;;;22.80;50.70;;;;;;5021058;28;20034;-66
2023/05/26 12:26:22;;;;;;;4.75;2.70;;;22.80;51.20;;;;;;5021885;28;20025;-66
2023/05/26 12:29:08;;;;;;;3.67;2.80;;;22.80;50.60;;;;;;5020541;28;20033;-66
2023/05/26 12:31:41;;;;;;;3.85;2.75;;;22.80;50.60;;;;;;5020254;28;20473;-65
2023/05/26 12:34:13;;;;;;;3.40;2.53;;;22.80;50.60;;;;;;5020614;28;20079;-66
2023/05/26 12:36:39;;;;;;;4.72;2.83;;;22.80;50.60;;;;;;5019174;28;20038;-65
2023/05/26 12:39:05;;;;;;;4.05;2.78;;;22.80;50.50;;;;;;5021095;28;20121;-65
2023/05/26 12:41:31;;;;;;;3.80;2.70;;;22.80;50.50;;;;;;5019465;28;20029;-65